createdAt,value
2022-11-05T00:00:58.590Z,30.52
2022-11-05T00:02:18.826Z,30.55
2022-11-05T00:03:38.812Z,31.28
2022-11-05T00:04:59.364Z,31.31
2022-11-05T00:06:19.886Z,30.79
2022-11-05T00:07:51.204Z,30.74
2022-11-05T00:09:11.356Z,30.66
2022-11-05T00:10:24.184Z,30.65
2022-11-05T00:11:45.888Z,30.76
2022-11-05T00:13:06.328Z,30.78
2022-11-05T00:14:26.877Z,30.81
2022-11-05T00:15:47.030Z,31.20
2022-11-05T00:16:48.780Z,30.71
2022-11-05T00:17:50.514Z,30.91
2022-11-05T00:19:06.960Z,30.85
2022-11-05T00:20:11.114Z,30.88
2022-11-05T00:21:31.137Z,30.98
2022-11-05T00:22:51.347Z,31.06
2022-11-05T00:24:11.318Z,31.41
2022-11-05T00:25:19.482Z,31.01
2022-11-05T00:26:21.281Z,30.94
2022-11-05T00:27:23.023Z,31.75
2022-11-05T00:28:27.130Z,31.86
2022-11-05T00:29:29.520Z,31.58
2022-11-05T00:30:32.418Z,31.59
2022-11-05T00:31:34.080Z,31.47
2022-11-05T00:32:35.774Z,31.81
2022-11-05T00:33:42.206Z,31.43
2022-11-05T00:34:43.946Z,31.78
2022-11-05T00:35:45.773Z,31.59
2022-11-05T00:36:47.529Z,31.67
2022-11-05T00:37:50.557Z,32.00
2022-11-05T00:38:52.563Z,32.06
2022-11-05T00:39:54.358Z,31.80
2022-11-05T00:40:56.485Z,31.70
2022-11-05T00:42:16.392Z,32.00
2022-11-05T00:43:36.599Z,32.01
2022-11-05T00:44:56.897Z,31.61
2022-11-05T00:45:58.886Z,31.45
2022-11-05T00:47:20.569Z,31.85
2022-11-05T00:48:41.361Z,31.21
2022-11-05T00:49:43.057Z,31.86
2022-11-05T00:50:44.790Z,31.72
2022-11-05T00:51:46.470Z,32.18
2022-11-05T00:52:56.227Z,31.75
2022-11-05T00:53:57.909Z,31.36
2022-11-05T00:54:59.637Z,31.64
2022-11-05T00:56:02.257Z,31.57
2022-11-05T00:57:04.855Z,31.80
2022-11-05T00:58:12.414Z,31.74
2022-11-05T00:59:14.097Z,31.84
2022-11-05T01:00:16.341Z,31.44
2022-11-05T01:01:18.233Z,31.67
2022-11-05T01:02:20.228Z,31.70
2022-11-05T01:03:28.084Z,31.85
2022-11-05T01:04:29.926Z,32.27
2022-11-05T01:05:33.980Z,31.76
2022-11-05T01:06:35.817Z,32.37
2022-11-05T01:07:37.637Z,31.92
2022-11-05T01:08:40.716Z,31.87
2022-11-05T01:09:42.455Z,32.29
2022-11-05T01:10:48.974Z,32.37
2022-11-05T01:11:51.425Z,31.61
2022-11-05T01:12:53.630Z,32.30
2022-11-05T01:13:55.385Z,31.97
2022-11-05T01:14:57.134Z,32.06
2022-11-05T01:16:06.053Z,32.44
2022-11-05T01:17:07.767Z,32.05
2022-11-05T01:18:09.953Z,31.90
2022-11-05T01:19:12.465Z,32.09
2022-11-05T01:20:14.745Z,32.19
2022-11-05T01:21:16.429Z,31.68
2022-11-05T01:22:18.161Z,32.29
2022-11-05T01:23:20.477Z,32.22
2022-11-05T01:24:22.572Z,31.81
2022-11-05T01:25:24.442Z,32.04
2022-11-05T01:26:26.928Z,32.06
2022-11-05T01:27:28.614Z,32.12
2022-11-05T01:28:30.427Z,32.13
2022-11-05T01:29:32.284Z,32.12
2022-11-05T01:30:34.047Z,32.52
2022-11-05T01:31:35.792Z,32.16
2022-11-05T01:32:38.012Z,31.96
2022-11-05T01:33:39.674Z,32.63
2022-11-05T01:34:41.362Z,31.86
2022-11-05T01:35:43.552Z,31.80
2022-11-05T01:36:45.251Z,32.18
2022-11-05T01:37:47.264Z,32.59
2022-11-05T01:38:49.262Z,31.97
2022-11-05T01:39:51.008Z,32.43
2022-11-05T01:40:53.341Z,32.00
2022-11-05T01:41:55.038Z,31.88
2022-11-05T01:42:56.735Z,31.99
2022-11-05T01:43:59.876Z,32.56
2022-11-05T01:45:14.132Z,32.29
2022-11-05T01:46:20.036Z,32.51
2022-11-05T01:47:50.124Z,32.15
2022-11-05T01:48:58.709Z,32.11
2022-11-05T01:50:17.682Z,32.61
2022-11-05T01:51:25.279Z,31.90
2022-11-05T01:52:30.794Z,32.25
2022-11-05T01:53:42.032Z,31.75
2022-11-05T01:54:44.665Z,32.15
2022-11-05T01:55:56.707Z,32.19
2022-11-05T01:57:11.199Z,32.47
2022-11-05T01:58:20.192Z,32.31
2022-11-05T01:59:37.072Z,32.50
2022-11-05T02:00:41.158Z,32.36
2022-11-05T02:01:42.995Z,32.24
2022-11-05T02:02:45.434Z,32.64
2022-11-05T02:03:49.714Z,32.54
2022-11-05T02:04:57.662Z,32.76
2022-11-05T02:06:01.396Z,32.39
2022-11-05T02:07:09.593Z,32.39
2022-11-05T02:08:18.810Z,32.08
2022-11-05T02:09:34.783Z,32.00
2022-11-05T02:10:36.649Z,32.61
2022-11-05T02:11:38.726Z,32.04
2022-11-05T02:12:44.661Z,32.35
2022-11-05T02:13:47.916Z,32.14
2022-11-05T02:14:49.689Z,32.23
2022-11-05T02:16:12.012Z,32.43
2022-11-05T02:17:35.121Z,32.04
2022-11-05T02:18:59.900Z,32.07
2022-11-05T02:20:42.437Z,31.82
2022-11-05T02:22:12.178Z,32.53
2022-11-05T02:23:22.645Z,32.50
2022-11-05T02:25:02.341Z,32.52
2022-11-05T02:26:34.021Z,32.33
2022-11-05T02:28:12.381Z,32.51
2022-11-05T02:29:32.905Z,32.22
2022-11-05T02:30:42.401Z,32.07
2022-11-05T02:32:05.440Z,31.94
2022-11-05T02:33:17.425Z,32.24
2022-11-05T02:35:04.467Z,32.69
2022-11-05T02:36:09.142Z,32.11
2022-11-05T02:37:22.758Z,32.66
2022-11-05T02:38:47.984Z,32.65
2022-11-05T02:39:58.655Z,31.98
2022-11-05T02:41:29.477Z,32.51
2022-11-05T02:43:03.566Z,32.74
2022-11-05T02:44:26.754Z,32.49
2022-11-05T02:45:31.114Z,32.45
2022-11-05T02:46:38.447Z,32.88
2022-11-05T02:47:58.851Z,32.45
2022-11-05T02:49:19.253Z,32.80
2022-11-05T02:50:34.149Z,32.85
2022-11-05T02:51:53.918Z,32.66
2022-11-05T02:52:58.381Z,32.50
2022-11-05T02:54:21.275Z,32.17
2022-11-05T02:55:30.429Z,32.76
2022-11-05T02:56:44.957Z,32.65
2022-11-05T02:57:47.854Z,32.37
2022-11-05T02:58:49.632Z,32.36
2022-11-05T03:00:39.934Z,32.43
2022-11-05T03:01:45.185Z,32.07
2022-11-05T03:02:47.197Z,32.21
2022-11-05T03:03:53.718Z,32.94
2022-11-05T03:04:55.513Z,32.50
2022-11-05T03:06:29.133Z,32.92
2022-11-05T03:07:47.804Z,32.57
2022-11-05T03:09:27.263Z,32.30
2022-11-05T03:10:58.020Z,31.92
2022-11-05T03:12:18.445Z,32.67
2022-11-05T03:13:51.211Z,32.08
2022-11-05T03:15:20.789Z,32.56
2022-11-05T03:16:28.504Z,32.15
2022-11-05T03:17:40.724Z,32.90
2022-11-05T03:19:00.969Z,32.70
2022-11-05T03:20:11.723Z,32.28
2022-11-05T03:21:36.929Z,32.48
2022-11-05T03:22:49.449Z,32.31
2022-11-05T03:24:02.721Z,32.36
2022-11-05T03:25:12.452Z,32.72
2022-11-05T03:26:33.635Z,32.65
2022-11-05T03:27:40.853Z,32.28
2022-11-05T03:28:46.425Z,32.49
2022-11-05T03:29:53.468Z,33.10
2022-11-05T03:30:57.932Z,32.61
2022-11-05T03:32:03.203Z,32.36
2022-11-05T03:33:12.324Z,33.07
2022-11-05T03:34:18.542Z,32.72
2022-11-05T03:35:26.977Z,32.66
2022-11-05T03:36:34.383Z,32.31
2022-11-05T03:37:39.874Z,32.62
2022-11-05T03:38:45.143Z,32.39
2022-11-05T03:39:51.373Z,32.48
2022-11-05T03:40:57.170Z,32.78
2022-11-05T03:42:02.081Z,32.37
2022-11-05T03:43:08.220Z,33.04
2022-11-05T03:44:15.002Z,32.76
2022-11-05T03:45:33.696Z,32.76
2022-11-05T03:46:41.929Z,33.03
2022-11-05T03:47:47.523Z,32.76
2022-11-05T03:48:53.574Z,32.84
2022-11-05T03:49:55.274Z,32.72
2022-11-05T03:51:07.999Z,32.59
2022-11-05T03:52:17.997Z,32.69
2022-11-05T03:53:26.132Z,33.11
2022-11-05T03:54:28.473Z,32.55
2022-11-05T03:55:38.563Z,33.12
2022-11-05T03:56:44.888Z,32.57
2022-11-05T03:57:52.292Z,32.71
2022-11-05T03:58:58.937Z,32.62
2022-11-05T04:00:01.100Z,32.97
2022-11-05T04:01:05.369Z,33.20
2022-11-05T04:02:07.408Z,32.53
2022-11-05T04:03:09.682Z,33.02
2022-11-05T04:04:11.567Z,32.46
2022-11-05T04:05:13.626Z,32.59
2022-11-05T04:06:33.653Z,32.82
2022-11-05T04:07:54.024Z,32.56
2022-11-05T04:09:14.187Z,32.99
2022-11-05T04:10:34.560Z,33.12
2022-11-05T04:11:55.584Z,32.36
2022-11-05T04:13:15.709Z,32.29
2022-11-05T04:14:17.485Z,32.27
2022-11-05T04:15:19.309Z,32.48
2022-11-05T04:16:39.649Z,32.81
2022-11-05T04:17:41.417Z,32.74
2022-11-05T04:18:43.468Z,32.64
2022-11-05T04:20:04.291Z,32.74
2022-11-05T04:21:26.036Z,32.99
2022-11-05T04:22:48.638Z,32.40
2022-11-05T04:24:08.974Z,32.68
2022-11-05T04:25:11.705Z,32.42
2022-11-05T04:26:13.659Z,32.75
2022-11-05T04:27:15.453Z,32.98
2022-11-05T04:28:17.730Z,32.86
2022-11-05T04:29:37.929Z,32.66
2022-11-05T04:30:40.109Z,32.82
2022-11-05T04:31:41.795Z,33.19
2022-11-05T04:32:43.485Z,32.75
2022-11-05T04:33:45.246Z,33.09
2022-11-05T04:34:47.003Z,32.85
2022-11-05T04:35:49.353Z,32.67
2022-11-05T04:36:53.230Z,33.56
2022-11-05T04:37:55.063Z,33.47
2022-11-05T04:38:56.748Z,32.70
2022-11-05T04:39:58.550Z,33.32
2022-11-05T04:41:13.954Z,32.87
2022-11-05T04:42:15.824Z,32.81
2022-11-05T04:43:19.745Z,32.60
2022-11-05T04:44:21.663Z,33.04
2022-11-05T04:45:24.928Z,32.98
2022-11-05T04:46:26.712Z,32.97
2022-11-05T04:47:28.408Z,33.29
2022-11-05T04:48:30.140Z,32.75
2022-11-05T04:49:31.837Z,32.65
2022-11-05T04:50:33.642Z,33.21
2022-11-05T04:51:35.325Z,33.07
2022-11-05T04:52:37.105Z,33.10
2022-11-05T04:53:38.826Z,33.06
2022-11-05T04:54:40.543Z,33.22
2022-11-05T04:55:42.196Z,32.72
2022-11-05T04:56:44.148Z,33.16
2022-11-05T04:57:49.806Z,33.03
2022-11-05T04:58:52.269Z,33.31
2022-11-05T04:59:55.222Z,32.96
2022-11-05T05:00:57.007Z,33.16
2022-11-05T05:01:58.903Z,33.04
2022-11-05T05:03:00.761Z,32.73
2022-11-05T05:04:02.626Z,33.02
2022-11-05T05:05:04.839Z,33.55
2022-11-05T05:06:07.305Z,32.85
2022-11-05T05:07:09.006Z,33.18
2022-11-05T05:08:10.750Z,33.55
2022-11-05T05:09:12.537Z,33.42
2022-11-05T05:10:14.255Z,32.76
2022-11-05T05:11:18.817Z,33.21
2022-11-05T05:12:21.687Z,32.91
2022-11-05T05:13:23.456Z,33.11
2022-11-05T05:14:25.261Z,33.40
2022-11-05T05:15:26.994Z,33.54
2022-11-05T05:16:28.878Z,33.08
2022-11-05T05:17:30.693Z,33.16
2022-11-05T05:18:32.919Z,33.09
2022-11-05T05:19:54.548Z,33.37
2022-11-05T05:21:18.448Z,32.70
2022-11-05T05:22:20.161Z,33.24
2022-11-05T05:23:21.910Z,32.90
2022-11-05T05:24:25.071Z,33.23
2022-11-05T05:25:26.837Z,33.01
2022-11-05T05:26:29.004Z,33.30
2022-11-05T05:27:31.464Z,32.65
2022-11-05T05:28:33.408Z,33.31
2022-11-05T05:29:35.136Z,33.58
2022-11-05T05:30:36.917Z,33.40
2022-11-05T05:31:39.322Z,33.22
2022-11-05T05:32:40.989Z,33.18
2022-11-05T05:33:42.717Z,33.29
2022-11-05T05:34:44.387Z,33.41
2022-11-05T05:35:46.089Z,33.54
2022-11-05T05:36:47.846Z,32.89
2022-11-05T05:37:49.649Z,33.22
2022-11-05T05:38:51.568Z,32.66
2022-11-05T05:39:53.716Z,33.40
2022-11-05T05:40:59.402Z,32.85
2022-11-05T05:42:01.074Z,32.80
2022-11-05T05:43:02.846Z,32.87
2022-11-05T05:44:06.077Z,33.29
2022-11-05T05:45:07.886Z,33.08
2022-11-05T05:46:14.732Z,33.12
2022-11-05T05:47:16.480Z,33.46
2022-11-05T05:48:18.141Z,33.27
2022-11-05T05:49:19.818Z,33.44
2022-11-05T05:50:21.706Z,32.65
2022-11-05T05:51:26.929Z,33.47
2022-11-05T05:52:28.620Z,33.04
2022-11-05T05:53:31.268Z,33.08
2022-11-05T05:54:37.069Z,32.76
2022-11-05T05:55:41.525Z,33.10
2022-11-05T05:56:44.471Z,33.18
2022-11-05T05:57:46.166Z,33.34
2022-11-05T05:58:48.175Z,32.92
2022-11-05T05:59:49.880Z,33.55
2022-11-05T06:00:51.658Z,33.13
2022-11-05T06:01:53.510Z,32.70
2022-11-05T06:02:56.043Z,32.92
2022-11-05T06:03:57.897Z,33.50
2022-11-05T06:04:59.633Z,33.19
2022-11-05T06:06:09.413Z,32.96
2022-11-05T06:07:11.145Z,33.07
2022-11-05T06:08:12.925Z,32.79
2022-11-05T06:09:15.281Z,32.85
2022-11-05T06:10:17.060Z,33.23
2022-11-05T06:11:18.783Z,33.16
2022-11-05T06:12:20.501Z,32.80
2022-11-05T06:13:22.195Z,33.19
2022-11-05T06:14:23.910Z,33.34
2022-11-05T06:15:25.723Z,33.13
2022-11-05T06:16:28.589Z,33.08
2022-11-05T06:17:30.252Z,32.86
2022-11-05T06:18:32.777Z,33.33
2022-11-05T06:19:34.452Z,33.10
2022-11-05T06:20:36.173Z,33.30
2022-11-05T06:21:38.014Z,32.80
2022-11-05T06:22:39.741Z,33.32
2022-11-05T06:23:43.029Z,32.87
2022-11-05T06:24:44.885Z,32.99
2022-11-05T06:25:46.608Z,33.06
2022-11-05T06:26:48.286Z,33.54
2022-11-05T06:27:50.012Z,33.34
2022-11-05T06:28:51.669Z,33.55
2022-11-05T06:29:53.611Z,33.00
2022-11-05T06:30:56.201Z,32.78
2022-11-05T06:31:57.878Z,33.38
2022-11-05T06:33:04.477Z,33.64
2022-11-05T06:34:06.201Z,33.27
2022-11-05T06:35:08.237Z,33.53
2022-11-05T06:36:15.076Z,33.07
2022-11-05T06:37:16.745Z,33.45
2022-11-05T06:38:18.534Z,33.03
2022-11-05T06:39:20.219Z,32.94
2022-11-05T06:40:21.944Z,33.21
2022-11-05T06:41:23.705Z,32.92
2022-11-05T06:42:25.731Z,33.60
2022-11-05T06:43:28.235Z,33.39
2022-11-05T06:44:29.925Z,33.62
2022-11-05T06:45:31.745Z,33.32
2022-11-05T06:46:33.607Z,33.43
2022-11-05T06:47:35.339Z,33.34
2022-11-05T06:48:37.334Z,33.64
2022-11-05T06:49:39.036Z,33.77
2022-11-05T06:50:44.137Z,33.18
2022-11-05T06:51:45.809Z,33.05
2022-11-05T06:52:56.230Z,33.16
2022-11-05T06:53:57.898Z,32.93
2022-11-05T06:54:59.668Z,33.10
2022-11-05T06:56:05.821Z,33.37
2022-11-05T06:57:09.927Z,33.15
2022-11-05T06:58:11.693Z,33.00
2022-11-05T06:59:13.469Z,33.33
2022-11-05T07:00:15.660Z,32.98
2022-11-05T07:01:17.595Z,33.46
2022-11-05T07:02:19.498Z,33.07
2022-11-05T07:03:21.279Z,33.47
2022-11-05T07:04:23.080Z,33.79
2022-11-05T07:05:24.881Z,33.36
2022-11-05T07:06:27.242Z,33.76
2022-11-05T07:07:29.312Z,33.18
2022-11-05T07:08:32.681Z,33.51
2022-11-05T07:09:34.575Z,33.25
2022-11-05T07:10:36.317Z,33.55
2022-11-05T07:11:38.022Z,32.85
2022-11-05T07:12:39.739Z,33.72
2022-11-05T07:13:41.510Z,32.92
2022-11-05T07:14:43.253Z,33.00
2022-11-05T07:15:45.567Z,33.32
2022-11-05T07:16:47.283Z,32.89
2022-11-05T07:17:49.093Z,33.51
2022-11-05T07:18:52.886Z,33.09
2022-11-05T07:19:54.646Z,33.17
2022-11-05T07:20:56.416Z,32.97
2022-11-05T07:21:58.156Z,32.92
2022-11-05T07:23:08.473Z,32.58
2022-11-05T07:24:10.486Z,33.27
2022-11-05T07:25:12.185Z,32.94
2022-11-05T07:26:14.370Z,32.74
2022-11-05T07:27:17.295Z,32.52
2022-11-05T07:28:19.055Z,32.32
2022-11-05T07:29:20.794Z,32.49
2022-11-05T07:30:22.557Z,32.56
2022-11-05T07:31:24.256Z,32.71
2022-11-05T07:32:25.970Z,32.43
2022-11-05T07:33:32.335Z,32.28
2022-11-05T07:34:37.033Z,32.06
2022-11-05T07:35:38.713Z,31.99
2022-11-05T07:36:40.473Z,31.75
2022-11-05T07:37:46.597Z,31.95
2022-11-05T07:38:48.336Z,31.53
2022-11-05T07:39:50.059Z,31.93
2022-11-05T07:40:51.786Z,31.93
2022-11-05T07:41:55.006Z,31.96
2022-11-05T07:42:59.434Z,31.73
2022-11-05T07:44:01.190Z,31.41
2022-11-05T07:45:03.157Z,31.97
2022-11-05T07:46:07.565Z,32.05
2022-11-05T07:47:11.587Z,31.48
2022-11-05T07:48:13.245Z,31.40
2022-11-05T07:49:14.913Z,31.24
2022-11-05T07:50:18.573Z,31.56
2022-11-05T07:51:20.366Z,31.34
2022-11-05T07:52:22.029Z,31.90
2022-11-05T07:53:23.708Z,31.65
2022-11-05T07:54:26.682Z,31.48
2022-11-05T07:55:28.929Z,30.91
2022-11-05T07:56:30.899Z,31.53
2022-11-05T07:57:32.582Z,31.00
2022-11-05T07:58:36.945Z,31.58
2022-11-05T07:59:38.614Z,30.94
2022-11-05T08:00:40.695Z,31.64
2022-11-05T08:01:42.579Z,30.76
2022-11-05T08:02:44.721Z,31.68
2022-11-05T08:03:46.704Z,30.93
2022-11-05T08:04:48.424Z,31.10
2022-11-05T08:05:50.202Z,30.80
2022-11-05T08:06:52.305Z,31.53
2022-11-05T08:07:55.367Z,31.19
2022-11-05T08:08:57.135Z,31.09
2022-11-05T08:09:58.917Z,30.86
2022-11-05T08:11:05.193Z,31.50
2022-11-05T08:12:07.306Z,31.35
2022-11-05T08:13:09.976Z,30.97
2022-11-05T08:14:12.021Z,31.10
2022-11-05T08:15:13.782Z,31.14
2022-11-05T08:16:16.255Z,31.31
2022-11-05T08:17:18.670Z,30.91
2022-11-05T08:18:20.447Z,30.75
2022-11-05T08:19:22.325Z,30.69
2022-11-05T08:20:24.065Z,30.81
2022-11-05T08:21:25.825Z,31.32
2022-11-05T08:22:27.486Z,30.75
2022-11-05T08:23:30.673Z,30.78
2022-11-05T08:24:32.474Z,30.90
2022-11-05T08:25:34.306Z,30.85
2022-11-05T08:26:36.042Z,31.21
2022-11-05T08:27:38.476Z,30.96
2022-11-05T08:28:40.161Z,31.11
2022-11-05T08:29:41.953Z,30.98
2022-11-05T08:30:43.644Z,31.39
2022-11-05T08:31:45.470Z,31.30
2022-11-05T08:32:47.165Z,31.04
2022-11-05T08:33:48.905Z,31.20
2022-11-05T08:34:50.708Z,30.62
2022-11-05T08:35:52.467Z,30.60
2022-11-05T08:36:54.203Z,30.47
2022-11-05T08:38:00.782Z,30.77
2022-11-05T08:39:02.507Z,31.04
2022-11-05T08:40:04.532Z,30.64
2022-11-05T08:41:06.537Z,31.03
2022-11-05T08:42:08.278Z,30.83
2022-11-05T08:43:12.071Z,30.86
2022-11-05T08:44:14.126Z,31.05
2022-11-05T08:45:15.815Z,30.62
2022-11-05T08:46:17.625Z,30.58
2022-11-05T08:47:19.341Z,30.66
2022-11-05T08:48:21.137Z,30.92
2022-11-05T08:49:22.895Z,30.34
2022-11-05T08:50:24.629Z,31.35
2022-11-05T08:51:26.344Z,31.30
2022-11-05T08:52:28.030Z,30.78
2022-11-05T08:53:29.729Z,30.95
2022-11-05T08:54:31.477Z,30.73
2022-11-05T08:55:33.338Z,31.30
2022-11-05T08:56:35.070Z,30.81
2022-11-05T08:57:36.849Z,30.66
2022-11-05T08:58:38.596Z,30.86
2022-11-05T08:59:40.261Z,30.60
2022-11-05T09:00:43.663Z,30.92
2022-11-05T09:01:45.597Z,31.00
2022-11-05T09:02:47.386Z,30.78
2022-11-05T09:03:52.059Z,30.80
2022-11-05T09:04:53.904Z,30.95
2022-11-05T09:05:55.618Z,30.78
2022-11-05T09:06:57.364Z,30.71
2022-11-05T09:08:01.439Z,30.38
2022-11-05T09:09:03.725Z,30.96
2022-11-05T09:10:05.865Z,31.06
2022-11-05T09:11:07.701Z,30.67
2022-11-05T09:12:13.196Z,31.10
2022-11-05T09:13:19.367Z,30.45
2022-11-05T09:14:21.622Z,31.10
2022-11-05T09:15:24.503Z,30.46
2022-11-05T09:16:27.052Z,30.99
2022-11-05T09:17:28.969Z,31.10
2022-11-05T09:18:31.092Z,30.82
2022-11-05T09:19:36.617Z,30.66
2022-11-05T09:20:41.914Z,30.93
2022-11-05T09:21:43.630Z,31.14
2022-11-05T09:22:46.335Z,31.03
2022-11-05T09:23:48.313Z,30.80
2022-11-05T09:24:50.030Z,30.49
2022-11-05T09:25:51.773Z,30.91
2022-11-05T09:26:53.521Z,31.20
2022-11-05T09:28:17.048Z,31.06
2022-11-05T09:29:19.207Z,31.23
2022-11-05T09:30:20.948Z,30.87
2022-11-05T09:31:22.715Z,30.75
2022-11-05T09:32:24.466Z,31.15
2022-11-05T09:33:28.077Z,31.19
2022-11-05T09:34:29.886Z,30.95
2022-11-05T09:35:31.608Z,30.98
2022-11-05T09:36:33.345Z,31.08
2022-11-05T09:37:36.909Z,31.22
2022-11-05T09:38:38.584Z,30.88
2022-11-05T09:39:40.269Z,30.84
2022-11-05T09:41:08.672Z,31.01
2022-11-05T09:42:16.823Z,30.48
2022-11-05T09:43:26.073Z,30.91
2022-11-05T09:44:47.663Z,30.67
2022-11-05T09:45:52.997Z,30.41
2022-11-05T09:46:59.546Z,30.84
2022-11-05T09:48:08.624Z,30.90
2022-11-05T09:49:24.816Z,31.11
2022-11-05T09:50:34.953Z,31.19
2022-11-05T09:51:37.234Z,30.86
2022-11-05T09:52:39.007Z,30.44
2022-11-05T09:53:41.474Z,30.84
2022-11-05T09:54:43.361Z,31.31
2022-11-05T09:55:55.144Z,31.29
2022-11-05T09:56:57.735Z,31.08
2022-11-05T09:58:03.006Z,30.72
2022-11-05T09:59:24.846Z,31.25
2022-11-05T10:00:26.705Z,31.05
2022-11-05T10:01:33.814Z,31.24
2022-11-05T10:02:45.816Z,31.09
2022-11-05T10:03:51.878Z,31.00
2022-11-05T10:04:58.252Z,30.70
2022-11-05T10:06:08.701Z,31.16
2022-11-05T10:07:16.368Z,30.97
2022-11-05T10:08:27.414Z,30.94
2022-11-05T10:09:51.509Z,30.75
2022-11-05T10:11:03.977Z,30.65
2022-11-05T10:12:17.105Z,31.19
2022-11-05T10:13:29.261Z,31.21
2022-11-05T10:14:36.569Z,30.75
2022-11-05T10:15:46.365Z,31.06
2022-11-05T10:17:00.631Z,30.89
2022-11-05T10:18:21.786Z,30.46
2022-11-05T10:19:39.540Z,30.40
2022-11-05T10:20:42.982Z,31.22
2022-11-05T10:22:05.398Z,31.17
2022-11-05T10:23:21.719Z,30.46
2022-11-05T10:24:23.472Z,30.88
2022-11-05T10:25:30.564Z,30.66
2022-11-05T10:26:32.292Z,30.88
2022-11-05T10:27:37.683Z,31.01
2022-11-05T10:28:39.473Z,31.38
2022-11-05T10:29:43.301Z,30.96
2022-11-05T10:30:48.357Z,31.11
2022-11-05T10:31:53.049Z,31.11
2022-11-05T10:32:58.682Z,31.42
2022-11-05T10:34:03.867Z,30.51
2022-11-05T10:35:07.846Z,31.33
2022-11-05T10:36:20.285Z,31.17
2022-11-05T10:37:24.041Z,31.20
2022-11-05T10:38:25.742Z,30.59
2022-11-05T10:39:27.978Z,31.12
2022-11-05T10:40:42.201Z,30.72
2022-11-05T10:42:02.492Z,30.86
2022-11-05T10:43:10.907Z,30.64
2022-11-05T10:44:36.509Z,30.45
2022-11-05T10:46:30.385Z,30.51
2022-11-05T10:47:53.594Z,30.72
2022-11-05T10:49:11.332Z,30.31
2022-11-05T10:50:18.481Z,30.99
2022-11-05T10:51:20.212Z,30.64
2022-11-05T10:52:38.513Z,30.75
2022-11-05T10:54:00.348Z,30.64
2022-11-05T10:55:21.025Z,30.35
2022-11-05T10:56:31.848Z,30.57
2022-11-05T10:57:39.453Z,31.08
2022-11-05T10:58:55.177Z,30.80
2022-11-05T11:00:23.758Z,30.44
2022-11-05T11:01:26.410Z,30.36
2022-11-05T11:02:30.323Z,31.05
2022-11-05T11:03:43.372Z,30.57
2022-11-05T11:04:52.427Z,30.73
2022-11-05T11:06:12.247Z,30.53
2022-11-05T11:07:22.025Z,30.47
2022-11-05T11:08:25.214Z,30.94
2022-11-05T11:09:30.578Z,30.38
2022-11-05T11:10:40.830Z,30.89
2022-11-05T11:11:43.009Z,30.70
2022-11-05T11:12:44.786Z,30.54
2022-11-05T11:13:51.437Z,30.62
2022-11-05T11:15:05.553Z,31.28
2022-11-05T11:16:16.812Z,31.09
2022-11-05T11:17:30.815Z,30.75
2022-11-05T11:18:41.970Z,31.21
2022-11-05T11:19:43.948Z,30.59
2022-11-05T11:20:46.771Z,30.88
2022-11-05T11:22:13.128Z,31.21
2022-11-05T11:23:16.377Z,30.88
2022-11-05T11:24:23.351Z,30.72
2022-11-05T11:25:27.880Z,30.83
2022-11-05T11:26:37.124Z,30.40
2022-11-05T11:27:39.049Z,31.24
2022-11-05T11:28:46.087Z,30.67
2022-11-05T11:29:57.170Z,30.76
2022-11-05T11:31:09.588Z,30.89
2022-11-05T11:32:15.575Z,31.23
2022-11-05T11:33:22.725Z,31.14
2022-11-05T11:34:28.343Z,30.88
2022-11-05T11:35:30.475Z,30.91
2022-11-05T11:36:36.029Z,30.79
2022-11-05T11:37:42.263Z,31.21
2022-11-05T11:38:44.691Z,31.05
2022-11-05T11:39:55.144Z,30.98
2022-11-05T11:41:26.018Z,30.37
2022-11-05T11:42:34.077Z,30.78
2022-11-05T11:43:39.253Z,31.04
2022-11-05T11:44:44.081Z,30.62
2022-11-05T11:45:49.649Z,31.15
2022-11-05T11:46:57.615Z,30.57
2022-11-05T11:48:04.485Z,31.00
2022-11-05T11:49:06.749Z,30.45
2022-11-05T11:50:31.106Z,30.93
2022-11-05T11:51:40.581Z,30.24
2022-11-05T11:52:42.338Z,30.58
2022-11-05T11:53:44.267Z,30.96
2022-11-05T11:54:46.033Z,30.53
2022-11-05T11:56:12.182Z,30.87
2022-11-05T11:57:28.816Z,30.39
2022-11-05T11:58:36.817Z,30.85
2022-11-05T12:00:07.277Z,30.56
2022-11-05T12:01:17.234Z,30.98
2022-11-05T12:02:21.891Z,30.34
2022-11-05T12:03:33.102Z,31.07
2022-11-05T12:04:56.517Z,30.69
2022-11-05T12:06:33.013Z,30.99
2022-11-05T12:07:40.346Z,30.96
2022-11-05T12:08:59.329Z,30.42
2022-11-05T12:10:08.192Z,30.77
2022-11-05T12:11:18.616Z,30.52
2022-11-05T12:12:43.114Z,30.86
2022-11-05T12:14:02.320Z,30.47
2022-11-05T12:15:15.576Z,30.71
2022-11-05T12:16:33.274Z,31.18
2022-11-05T12:18:02.600Z,31.07
2022-11-05T12:19:19.423Z,30.41
2022-11-05T12:20:23.828Z,30.91
2022-11-05T12:21:53.281Z,30.98
2022-11-05T12:23:29.748Z,30.81
2022-11-05T12:24:34.446Z,30.38
2022-11-05T12:26:02.676Z,30.43
2022-11-05T12:27:22.377Z,30.72
2022-11-05T12:29:18.523Z,30.64
2022-11-05T12:30:22.244Z,30.32
2022-11-05T12:32:01.174Z,30.37
2022-11-05T12:33:15.477Z,30.51
2022-11-05T12:34:37.693Z,30.31
2022-11-05T12:35:56.438Z,30.75
2022-11-05T12:37:20.384Z,30.52
2022-11-05T12:38:44.165Z,30.76
2022-11-05T12:39:54.301Z,31.01
2022-11-05T12:41:22.454Z,31.02
2022-11-05T12:42:30.580Z,30.23
2022-11-05T12:44:00.784Z,30.96
2022-11-05T12:45:05.073Z,30.46
2022-11-05T12:46:25.024Z,30.91
2022-11-05T12:47:32.640Z,30.47
2022-11-05T12:49:15.533Z,30.71
2022-11-05T12:50:24.054Z,30.55
2022-11-05T12:51:56.540Z,30.48
2022-11-05T12:53:01.192Z,30.88
2022-11-05T12:54:07.792Z,30.94
2022-11-05T12:55:13.025Z,30.38
2022-11-05T12:56:34.877Z,30.70
2022-11-05T12:57:40.791Z,31.02
2022-11-05T12:58:51.822Z,30.57
2022-11-05T13:00:29.472Z,30.31
2022-11-05T13:01:36.943Z,30.47
2022-11-05T13:03:20.466Z,30.43
2022-11-05T13:04:37.903Z,30.32
2022-11-05T13:05:45.360Z,30.54
2022-11-05T13:06:52.473Z,30.62
2022-11-05T13:08:01.626Z,30.14
2022-11-05T13:09:12.082Z,30.59
2022-11-05T13:10:30.200Z,30.54
2022-11-05T13:11:58.842Z,30.61
2022-11-05T13:13:24.875Z,30.76
2022-11-05T13:14:36.594Z,30.82
2022-11-05T13:15:44.182Z,30.22
2022-11-05T13:16:53.988Z,30.37
2022-11-05T13:18:00.159Z,30.42
2022-11-05T13:19:45.343Z,30.78
2022-11-05T13:20:53.764Z,30.27
2022-11-05T13:22:09.626Z,30.16
2022-11-05T13:23:40.332Z,30.45
2022-11-05T13:24:57.753Z,30.50
2022-11-05T13:26:06.425Z,30.12
2022-11-05T13:27:39.963Z,30.28
2022-11-05T13:28:56.533Z,30.21
2022-11-05T13:30:07.253Z,30.09
2022-11-05T13:31:12.524Z,30.13
2022-11-05T13:32:29.525Z,30.74
2022-11-05T13:33:35.613Z,30.21
2022-11-05T13:34:37.888Z,30.68
2022-11-05T13:36:13.231Z,30.43
2022-11-05T13:37:39.258Z,30.71
2022-11-05T13:38:59.428Z,30.39
2022-11-05T13:40:07.063Z,30.27
2022-11-05T13:41:08.806Z,30.90
2022-11-05T13:42:44.376Z,30.75
2022-11-05T13:44:09.339Z,30.38
2022-11-05T13:45:34.565Z,30.43
2022-11-05T13:47:04.252Z,29.90
2022-11-05T13:48:30.508Z,30.59
2022-11-05T13:49:43.425Z,30.42
2022-11-05T13:51:18.518Z,30.60
2022-11-05T13:52:44.809Z,30.45
2022-11-05T13:54:04.564Z,30.79
2022-11-05T13:55:25.047Z,30.46
2022-11-05T13:56:32.797Z,30.54
2022-11-05T13:58:11.553Z,30.83
2022-11-05T13:59:21.982Z,30.04
2022-11-05T14:00:27.419Z,30.70
2022-11-05T14:01:50.307Z,30.05
2022-11-05T14:03:05.426Z,30.63
2022-11-05T14:04:16.029Z,30.45
2022-11-05T14:05:28.508Z,30.21
2022-11-05T14:06:34.262Z,30.71
2022-11-05T14:07:45.927Z,30.74
2022-11-05T14:08:47.853Z,30.47
2022-11-05T14:09:56.948Z,30.54
2022-11-05T14:11:03.908Z,30.67
2022-11-05T14:12:16.140Z,30.86
2022-11-05T14:13:27.952Z,30.76
2022-11-05T14:15:33.153Z,30.18
2022-11-05T14:16:52.885Z,30.75
2022-11-05T14:18:06.618Z,30.02
2022-11-05T14:19:20.324Z,30.12
2022-11-05T14:20:44.885Z,30.08
2022-11-05T14:21:58.228Z,30.77
2022-11-05T14:23:21.166Z,30.08
2022-11-05T14:24:22.828Z,29.85
2022-11-05T14:25:25.430Z,30.25
2022-11-05T14:26:29.581Z,30.33
2022-11-05T14:27:37.205Z,30.14
2022-11-05T14:28:40.565Z,30.11
2022-11-05T14:29:44.541Z,30.81
2022-11-05T14:30:47.545Z,30.41
2022-11-05T14:32:08.256Z,30.13
2022-11-05T14:33:25.669Z,30.86
2022-11-05T14:34:47.296Z,29.95
2022-11-05T14:35:49.057Z,30.86
2022-11-05T14:37:19.994Z,30.13
2022-11-05T14:38:26.084Z,30.47
2022-11-05T14:39:30.857Z,30.55
2022-11-05T14:40:42.498Z,30.80
2022-11-05T14:42:04.545Z,30.76